METAR Data
IDs: Format: Raw Decoded Include TAF

Data at: 0158 UTC 25 Mar 2019

KFFL 250155Z AUTO 03008KT 3SM BR OVC008 09/08 A3004 RMK AO2 PWINO
KFFL 250135Z AUTO 03008KT 4SM BR OVC008 09/08 A3003 RMK AO2 PWINO
KFFL 250115Z AUTO 04009KT 6SM BR OVC011 09/08 A3002 RMK AO2 PWINO
KFFL 250055Z AUTO 05009KT 7SM OVC014 10/08 A3002 RMK AO2 PWINO
KFFL 250035Z AUTO 04008KT 5SM BR OVC014 10/09 A3001 RMK AO2 PWINO
KFFL 250015Z AUTO 04005KT 4SM BR OVC015 10/09 A3000 RMK AO2 PWINO
KFFL 242355Z AUTO 05006KT 5SM BR BKN016 OVC020 10/09 A3000 RMK AO2 PWINO
KFFL 242335Z AUTO 04006KT 5SM BR OVC019 10/09 A2999 RMK AO2 PWINO
KFFL 242315Z AUTO 05006KT 6SM BR OVC019 10/09 A2999 RMK AO2 PWINO
KFFL 242255Z AUTO 05007KT 6SM BR OVC019 11/09 A2998 RMK AO2 PWINO
KFFL 242235Z AUTO 05007KT 6SM BR OVC016 11/09 A2998 RMK AO2 PWINO
KFFL 242215Z AUTO 05008KT 6SM BR OVC012 11/10 A2998 RMK AO2 PWINO
KFFL 242155Z AUTO 05007KT 6SM BR BKN011 BKN020 11/10 A2997 RMK AO2 P0001 PWINO
KFFL 242135Z AUTO 04008KT 5SM BR FEW008 FEW020 11/10 A2997 RMK AO2 PWINO
KFFL 242115Z AUTO 05008KT 2 1/2SM BR FEW060 11/11 A2996 RMK AO2 PWINO
KFFL 242055Z AUTO 05009KT 2SM BR SCT060 10/10 A2996 RMK AO2 P0005 PWINO
KFFL 242035Z AUTO 07007KT 2 1/2SM BR SCT022 SCT028 SCT033 10/10 A2996 RMK AO2 PWINO
KFFL 242015Z AUTO 06004KT 3SM BR BKN023 BKN055 BKN065 10/09 A2997 RMK AO2 PWINO
KFFL 241955Z AUTO 00000KT 5SM BR FEW020 BKN028 BKN065 10/09 A2997 RMK AO2 P0001 PWINO
KFFL 241935Z AUTO 09003KT 5SM BR BKN019 BKN030 10/09 A2997 RMK AO2 PWINO
KFFL 241915Z AUTO 10005KT 6SM BR SCT020 BKN075 10/09 A2997 RMK AO2 PWINO
KFFL 241855Z AUTO 11006KT 7SM SCT009 OVC020 10/09 A2997 RMK AO2 PWINO
KFFL 241835Z AUTO 12004KT 7SM SCT009 BKN012 OVC019 10/09 A2998 RMK AO2 PWINO
KFFL 241815Z AUTO 11003KT 8SM SCT011 OVC019 10/09 A2999 RMK AO2 PWINO
KFFL 241755Z AUTO 11004KT 8SM FEW009 SCT013 OVC019 10/09 A2999 RMK AO2 PWINO
KFFL 241735Z AUTO 13005KT 7SM SCT010 BKN013 OVC019 10/09 A3000 RMK AO2 PWINO
KFFL 241715Z AUTO 12005KT 7SM BKN011 OVC020 10/09 A3000 RMK AO2 PWINO
KFFL 241655Z AUTO 14006KT 6SM BR SCT009 BKN013 BKN020 10/09 A3001 RMK AO2 PWINO
KFFL 241635Z AUTO 14007KT 7SM SCT009 OVC020 10/08 A3001 RMK AO2 PWINO
KFFL 241615Z AUTO 14009KT 7SM SCT008 BKN019 OVC025 10/08 A3001 RMK AO2 PWINO
KFFL 241555Z AUTO 13007KT 6SM BR SCT008 SCT019 OVC027 09/08 A3001 RMK AO2 PWINO
KFFL 241535Z AUTO 12009KT 6SM BR FEW007 OVC027 10/09 A3001 RMK AO2 PWINO
KFFL 241515Z AUTO 12009KT 5SM BR FEW007 BKN022 OVC026 09/09 A3000 RMK AO2 PWINO
KFFL 241455Z AUTO 12007KT 4SM BR SCT007 OVC019 08/08 A3001 RMK AO2 PWINO
KFFL 241435Z AUTO 12007KT 4SM BR FEW008 OVC019 08/08 A3001 RMK AO2 PWINO
KFFL 241415Z AUTO 13008KT 4SM BR OVC021 08/08 A3001 RMK AO2 PWINO
KFFL 241355Z AUTO 12008KT 4SM BR OVC022 08/08 A3001 RMK AO2 PWINO
KFFL 241335Z AUTO 12008KT 4SM BR OVC023 08/08 A3001 RMK AO2 PWINO
KFFL 241315Z AUTO 11008KT 4SM BR OVC024 08/08 A3001 RMK AO2 PWINO
KFFL 241255Z AUTO 12006KT 4SM BR OVC025 07/07 A3001 RMK AO2 PWINO
KFFL 241235Z AUTO 13006KT 4SM BR OVC026 07/07 A3002 RMK AO2 PWINO
KFFL 241215Z AUTO 12006KT 4SM BR OVC027 07/07 A3002 RMK AO2 PWINO
KFFL 241155Z AUTO 12006KT 4SM BR OVC027 07/07 A3002 RMK AO2 PWINO
KFFL 241135Z AUTO 12007KT 4SM BR OVC030 07/07 A3002 RMK AO2 PWINO
KFFL 241115Z AUTO 12006KT 4SM BR OVC032 07/07 A3002 RMK AO2 PWINO
KFFL 241055Z AUTO 12006KT 5SM BR OVC034 07/06 A3002 RMK AO2 P0006 PWINO
KFFL 241035Z AUTO 11005KT 5SM BR FEW026 OVC034 07/07 A3002 RMK AO2 PWINO
KFFL 241015Z AUTO 12007KT 2 1/2SM BR FEW026 BKN034 OVC045 07/07 A3003 RMK AO2 PWINO
KFFL 240955Z AUTO 13006KT 4SM BR OVC043 07/07 A3003 RMK AO2 PWINO
KFFL 240935Z AUTO 12006KT 4SM BR OVC043 07/07 A3003 RMK AO2 PWINO
KFFL 240915Z AUTO 13007KT 6SM BR BKN040 OVC046 07/06 A3003 RMK AO2 PWINO
KFFL 240855Z AUTO 14007KT 8SM FEW004 BKN040 OVC046 07/06 A3004 RMK AO2 P0005 PWINO
KFFL 240835Z AUTO 14008KT 8SM FEW003 OVC041 07/06 A3005 RMK AO2 PWINO
KFFL 240815Z AUTO 15005KT 7SM BKN040 OVC049 07/06 A3006 RMK AO2 PWINO
KFFL 240755Z AUTO 15006KT 6SM BR BKN044 OVC060 07/05 A3006 RMK AO2 P0003 PWINO
KFFL 240735Z AUTO 15005KT 6SM HZ FEW029 SCT050 OVC065 07/04 A3007 RMK AO2 PWINO
KFFL 240715Z AUTO 16007KT 7SM FEW031 BKN060 OVC070 07/04 A3008 RMK AO2 PWINO
KFFL 240655Z AUTO 15009KT 7SM OVC060 08/03 A3008 RMK AO2 PWINO
KFFL 240635Z AUTO 14011KT 9SM FEW046 BKN055 OVC070 08/03 A3008 RMK AO2 PWINO
KFFL 240615Z AUTO 14009KT 10SM FEW042 BKN070 OVC100 08/02 A3009 RMK AO2 PWINO
KFFL 240555Z AUTO 13007KT 10SM FEW034 FEW055 OVC095 07/02 A3009 RMK AO2 PWINO
KFFL 240535Z AUTO 12007KT 10SM SCT055 BKN065 OVC095 07/02 A3009 RMK AO2 PWINO
KFFL 240515Z AUTO 13006KT 10SM FEW049 OVC060 08/03 A3010 RMK AO2 PWINO
KFFL 240455Z AUTO 13006KT 10SM FEW042 FEW049 OVC060 08/02 A3010 RMK AO2 PWINO
KFFL 240435Z AUTO 13006KT 10SM OVC065 08/02 A3011 RMK AO2 PWINO
KFFL 240415Z AUTO 13008KT 10SM FEW046 BKN065 OVC075 08/02 A3011 RMK AO2 PWINO
KFFL 240355Z AUTO 13008KT 10SM FEW041 SCT065 OVC075 09/01 A3011 RMK AO2 PWINO
KFFL 240335Z AUTO 12009KT 10SM OVC075 09/01 A3012 RMK AO2 PWINO
KFFL 240315Z AUTO 13007KT 10SM OVC070 09/01 A3012 RMK AO2 PWINO
KFFL 240255Z AUTO 14006KT 10SM BKN070 OVC085 09/02 A3012 RMK AO2 PWINO
KFFL 240235Z AUTO 15009KT 10SM FEW032 SCT050 OVC075 09/02 A3012 RMK AO2 PWINO
KFFL 240215Z AUTO 12009KT 10SM FEW035 BKN046 OVC075 09/02 A3011 RMK AO2 PWINO
KFFL 240155Z AUTO 13010KT 10SM FEW065 BKN080 OVC095 09/01 A3011 RMK AO2 PWINO
KFFL 240135Z AUTO 12008KT FEW080 BKN095 OVC130 09/01 A3011 RMK AO2 PWINO
KFFL 240115Z AUTO 12008KT 10SM SCT100 OVC120 09/01 A3011 RMK AO2 PWINO
KFFL 240055Z AUTO 12009KT 10SM OVC110 10/01 A3012 RMK AO2 PWINO
KFFL 240035Z AUTO 13008KT 10SM OVC110 10/01 A3013 RMK AO2 PWINO
KFFL 240015Z AUTO 13009KT 10SM OVC110 11/00 A3013 RMK AO2 PWINO
KFFL 232355Z AUTO 13009KT 10SM BKN110 11/01 A3013 RMK AO2 PWINO
KFFL 232335Z AUTO 14008KT 10SM FEW120 FEW140 11/01 A3013 RMK AO2 PWINO
KFFL 232315Z AUTO 12010KT 10SM SCT120 SCT140 11/00 A3013 RMK AO2 PWINO
KFFL 232255Z AUTO 13009G14KT 10SM FEW100 BKN120 BKN140 12/00 A3014 RMK AO2 PWINO
KFFL 232235Z AUTO 13008G15KT 10SM SCT100 BKN120 12/M00 A3014 RMK AO2 PWINO
KFFL 232215Z AUTO 13010G16KT 10SM FEW100 SCT120 12/00 A3014 RMK AO2 PWINO
KFFL 232155Z AUTO 13013KT 10SM CLR 12/M00 A3014 RMK AO2 PWINO
KFFL 232135Z AUTO 12015KT 10SM FEW110 12/M00 A3015 RMK AO2 PWINO
KFFL 232115Z AUTO 13010KT 10SM BKN110 12/00 A3016 RMK AO2 PWINO
KFFL 232055Z AUTO 13013KT 10SM BKN120 12/00 A3016 RMK AO2 PWINO
KFFL 232035Z AUTO 12013KT 10SM FEW120 12/00 A3016 RMK AO2 PWINO
KFFL 232015Z AUTO 13014KT 10SM CLR 12/00 A3017 RMK AO2 PWINO
KFFL 231955Z AUTO 14012KT 10SM CLR 13/M00 A3018 RMK AO2 PWINO
KFFL 231935Z AUTO 12011KT 10SM CLR 13/00 A3018 RMK AO2 PWINO
KFFL 231915Z AUTO 14010G17KT 10SM CLR 13/M01 A3019 RMK AO2 PWINO
KFFL 231855Z AUTO 14014KT 10SM CLR 13/00 A3020 RMK AO2 PWINO
KFFL 231835Z AUTO 15013G18KT 10SM CLR 12/M00 A3020 RMK AO2 PWINO
KFFL 231815Z AUTO 14014G19KT 10SM CLR 11/M01 A3020 RMK AO2 PWINO
KFFL 231755Z AUTO 16011G16KT 10SM CLR 12/00 A3021 RMK AO2 PWINO
KFFL 231735Z AUTO 15013G20KT 10SM CLR 11/M01 A3022 RMK AO2 PWINO
KFFL 231715Z AUTO 14013KT 10SM CLR 10/M00 A3022 RMK AO2 PWINO
KFFL 231655Z AUTO 15013KT 10SM CLR 11/M00 A3023 RMK AO2 PWINO
KFFL 231635Z AUTO 16012G18KT 10SM CLR 11/M00 A3023 RMK AO2 PWINO
KFFL 231615Z AUTO 14012KT 10SM CLR 10/00 A3023 RMK AO2 PWINO
KFFL 231555Z AUTO 15011KT 10SM CLR 09/M00 A3024 RMK AO2 PWINO
KFFL 231535Z AUTO 15011KT 10SM CLR 08/00 A3025 RMK AO2 PWINO
KFFL 231515Z AUTO 15012KT 10SM CLR 08/M00 A3025 RMK AO2 PWINO
KFFL 231455Z AUTO 14010G15KT CLR 07/M00 A3025 RMK AO2 PWINO
KFFL 231435Z AUTO 13010KT 10SM CLR 06/M00 A3025 RMK AO2 PWINO
KFFL 231415Z AUTO 14008KT 10SM CLR 05/M00 A3026 RMK AO2 PWINO